createdAt,value
2023-02-14T00:02:24.478Z,68.20
2023-02-14T00:04:51.034Z,68.74
2023-02-14T00:07:17.605Z,67.95
2023-02-14T00:09:44.133Z,67.95
2023-02-14T00:12:10.572Z,67.81
2023-02-14T00:14:55.364Z,67.89
2023-02-14T00:17:21.796Z,68.45
2023-02-14T00:19:48.465Z,68.73
2023-02-14T00:22:14.875Z,69.73
2023-02-14T00:24:41.317Z,68.68
2023-02-14T00:27:07.845Z,69.21
2023-02-14T00:29:34.425Z,68.95
2023-02-14T00:32:01.305Z,69.97
2023-02-14T00:34:28.146Z,70.87
2023-02-14T00:36:54.660Z,70.13
2023-02-14T00:39:21.221Z,70.13
2023-02-14T00:41:47.821Z,69.89
2023-02-14T00:44:14.289Z,70.05
2023-02-14T00:46:40.981Z,69.95
2023-02-14T00:49:07.471Z,70.74
2023-02-14T00:51:33.953Z,70.72
2023-02-14T00:54:00.745Z,69.78
2023-02-14T00:56:27.653Z,70.40
2023-02-14T00:58:54.114Z,69.43
2023-02-14T01:01:21.097Z,69.59
2023-02-14T01:03:47.856Z,68.92
2023-02-14T01:06:14.808Z,68.82
2023-02-14T01:08:41.301Z,68.26
2023-02-14T01:11:13.883Z,68.59
2023-02-14T01:13:41.327Z,68.62
2023-02-14T01:16:11.021Z,68.54
2023-02-14T01:18:38.848Z,68.46
2023-02-14T01:21:17.305Z,68.64
2023-02-14T01:23:45.003Z,68.89
2023-02-14T01:26:11.801Z,68.82
2023-02-14T01:28:40.212Z,68.52
2023-02-14T01:31:10.739Z,69.56
2023-02-14T01:33:38.147Z,69.44
2023-02-14T01:36:04.897Z,68.88
2023-02-14T01:38:31.397Z,69.08
2023-02-14T01:40:58.532Z,69.22
2023-02-14T01:43:25.445Z,69.44
2023-02-14T01:45:51.886Z,68.61
2023-02-14T01:48:21.812Z,68.74
2023-02-14T01:50:51.781Z,68.13
2023-02-14T01:53:24.776Z,68.56
2023-02-14T01:55:58.633Z,67.94
2023-02-14T01:58:29.554Z,68.63
2023-02-14T02:00:59.452Z,68.80
2023-02-14T02:03:30.782Z,68.47
2023-02-14T02:06:10.304Z,69.30
2023-02-14T02:08:41.769Z,69.93
2023-02-14T02:11:08.414Z,68.84
2023-02-14T02:13:34.822Z,68.45
2023-02-14T02:16:19.288Z,68.58
2023-02-14T02:19:02.964Z,69.03
2023-02-14T02:21:35.416Z,69.22
2023-02-14T02:24:20.812Z,69.24
2023-02-14T02:27:29.139Z,68.31
2023-02-14T02:30:15.953Z,69.15
2023-02-14T02:32:48.008Z,70.29
2023-02-14T02:35:40.567Z,70.36
2023-02-14T02:38:25.130Z,70.62
2023-02-14T02:41:04.003Z,70.93
2023-02-14T02:43:55.342Z,70.19
2023-02-14T02:46:48.942Z,70.11
2023-02-14T02:49:43.209Z,71.09
2023-02-14T02:52:35.432Z,72.08
2023-02-14T02:55:13.851Z,70.56
2023-02-14T02:57:42.712Z,70.73
2023-02-14T03:00:13.459Z,70.70
2023-02-14T03:03:07.313Z,69.11
2023-02-14T03:05:35.306Z,69.76
2023-02-14T03:08:03.003Z,70.28
2023-02-14T03:10:37.323Z,69.76
2023-02-14T03:13:14.376Z,69.24
2023-02-14T03:15:58.387Z,70.56
2023-02-14T03:19:19.161Z,71.17
2023-02-14T03:22:03.567Z,70.31
2023-02-14T03:24:57.478Z,69.23
2023-02-14T03:27:47.863Z,68.67
2023-02-14T03:30:40.265Z,70.01
2023-02-14T03:33:17.076Z,69.35
2023-02-14T03:36:25.084Z,68.53
2023-02-14T03:39:02.453Z,69.98
2023-02-14T03:41:35.710Z,69.29
2023-02-14T03:44:07.100Z,68.53
2023-02-14T03:46:42.610Z,69.04
2023-02-14T03:49:13.606Z,69.21
2023-02-14T03:51:41.403Z,69.21
2023-02-14T03:54:10.571Z,68.70
2023-02-14T03:56:50.264Z,69.30
2023-02-14T03:59:22.342Z,69.29
2023-02-14T04:01:58.271Z,70.19
2023-02-14T04:04:28.449Z,71.38
2023-02-14T04:06:55.174Z,72.10
2023-02-14T04:09:21.602Z,72.63
2023-02-14T04:11:50.313Z,72.02
2023-02-14T04:14:17.566Z,72.95
2023-02-14T04:17:02.663Z,71.70
2023-02-14T04:19:29.120Z,71.04
2023-02-14T04:21:55.556Z,70.82
2023-02-14T04:24:21.961Z,71.80
2023-02-14T04:26:54.357Z,71.74
2023-02-14T04:29:21.332Z,71.19
2023-02-14T04:31:48.005Z,71.61
2023-02-14T04:34:15.001Z,71.28
2023-02-14T04:36:41.411Z,70.73
2023-02-14T04:39:07.855Z,71.22
2023-02-14T04:41:34.252Z,70.29
2023-02-14T04:44:00.765Z,70.94
2023-02-14T04:46:27.213Z,72.09
2023-02-14T04:48:53.645Z,73.02
2023-02-14T04:51:20.058Z,72.09
2023-02-14T04:53:46.451Z,71.73
2023-02-14T04:56:12.888Z,71.71
2023-02-14T04:58:39.368Z,72.27
2023-02-14T05:01:05.854Z,72.93
2023-02-14T05:03:32.406Z,73.31
2023-02-14T05:05:58.820Z,73.55
2023-02-14T05:08:25.317Z,74.30
2023-02-14T05:10:51.757Z,75.54
2023-02-14T05:13:18.238Z,74.76
2023-02-14T05:15:45.541Z,74.48
2023-02-14T05:18:11.987Z,75.58
2023-02-14T05:20:38.408Z,76.54
2023-02-14T05:23:05.241Z,76.92
2023-02-14T05:25:31.951Z,76.85
2023-02-14T05:27:58.465Z,75.95
2023-02-14T05:30:27.910Z,76.39
2023-02-14T05:32:54.600Z,76.55
2023-02-14T05:35:21.013Z,77.53
2023-02-14T05:37:47.397Z,76.74
2023-02-14T05:40:15.140Z,79.16
2023-02-14T05:42:45.011Z,78.60
2023-02-14T05:45:11.912Z,78.55
2023-02-14T05:47:38.995Z,78.46
2023-02-14T05:50:06.538Z,78.58
2023-02-14T05:52:32.953Z,77.77
2023-02-14T05:54:59.337Z,76.63
2023-02-14T05:57:25.812Z,79.03
2023-02-14T05:59:52.210Z,77.67
2023-02-14T06:02:18.720Z,77.43
2023-02-14T06:04:45.260Z,78.84
2023-02-14T06:07:11.697Z,78.99
2023-02-14T06:09:38.103Z,77.13
2023-02-14T06:12:04.705Z,76.79
2023-02-14T06:14:31.158Z,77.42
2023-02-14T06:16:57.623Z,75.69
2023-02-14T06:19:24.076Z,75.95
2023-02-14T06:21:50.456Z,75.60
2023-02-14T06:24:16.880Z,76.35
2023-02-14T06:26:43.328Z,76.38
2023-02-14T06:29:10.039Z,76.48
2023-02-14T06:31:36.645Z,77.09
2023-02-14T06:34:03.148Z,76.79
2023-02-14T06:36:29.574Z,77.20
2023-02-14T06:38:55.988Z,76.48
2023-02-14T06:41:22.412Z,77.02
2023-02-14T06:43:48.879Z,76.71
2023-02-14T06:46:16.307Z,77.53
2023-02-14T06:48:42.937Z,78.42
2023-02-14T06:51:09.850Z,79.25
2023-02-14T06:53:36.567Z,79.39
2023-02-14T06:56:04.094Z,77.40
2023-02-14T06:58:30.695Z,78.45
2023-02-14T07:00:58.990Z,78.36
2023-02-14T07:03:26.780Z,77.62
2023-02-14T07:05:53.715Z,77.13
2023-02-14T07:08:20.665Z,77.68
2023-02-14T07:10:47.213Z,76.65
2023-02-14T07:13:13.647Z,75.97
2023-02-14T07:15:40.146Z,76.85
2023-02-14T07:18:08.686Z,76.02
2023-02-14T07:20:35.514Z,77.15
2023-02-14T07:23:01.934Z,76.28
2023-02-14T07:25:28.348Z,77.13
2023-02-14T07:27:54.792Z,77.50
2023-02-14T07:30:21.683Z,77.62
2023-02-14T07:32:48.127Z,76.58
2023-02-14T07:35:15.358Z,77.05
2023-02-14T07:37:41.998Z,76.33
2023-02-14T07:40:14.552Z,77.28
2023-02-14T07:42:41.520Z,77.49
2023-02-14T07:45:20.663Z,78.02
2023-02-14T07:47:50.485Z,76.44
2023-02-14T07:50:17.552Z,76.18
2023-02-14T07:52:44.883Z,77.30
2023-02-14T07:55:11.770Z,77.03
2023-02-14T07:57:38.237Z,76.99
2023-02-14T08:00:06.616Z,78.07
2023-02-14T08:02:33.164Z,77.32
2023-02-14T08:04:59.633Z,78.72
2023-02-14T08:07:26.084Z,78.58
2023-02-14T08:09:52.533Z,78.13
2023-02-14T08:12:37.279Z,78.04
2023-02-14T08:15:22.586Z,76.06
2023-02-14T08:17:49.013Z,76.65
2023-02-14T08:20:15.435Z,76.46
2023-02-14T08:22:41.912Z,76.54
2023-02-14T08:25:08.551Z,77.13
2023-02-14T08:27:34.996Z,77.44
2023-02-14T08:30:01.532Z,75.95
2023-02-14T08:32:28.091Z,77.01
2023-02-14T08:34:54.612Z,76.35
2023-02-14T08:37:21.028Z,75.85
2023-02-14T08:39:47.456Z,77.40
2023-02-14T08:42:13.909Z,75.93
2023-02-14T08:44:40.317Z,76.19
2023-02-14T08:47:07.100Z,75.95
2023-02-14T08:49:33.548Z,76.20
2023-02-14T08:51:59.987Z,77.40
2023-02-14T08:54:26.415Z,77.08
2023-02-14T08:56:52.871Z,75.81
2023-02-14T08:59:19.321Z,75.17
2023-02-14T09:01:45.750Z,74.62
2023-02-14T09:04:12.241Z,74.41
2023-02-14T09:06:39.527Z,74.23
2023-02-14T09:09:06.739Z,73.94
2023-02-14T09:11:33.451Z,74.68
2023-02-14T09:13:59.888Z,74.15
2023-02-14T09:16:26.651Z,75.08
2023-02-14T09:18:53.455Z,75.49
2023-02-14T09:21:23.270Z,75.16
2023-02-14T09:23:49.822Z,75.45
2023-02-14T09:26:16.926Z,75.41
2023-02-14T09:28:43.431Z,74.34
2023-02-14T09:31:11.360Z,73.54
2023-02-14T09:33:56.957Z,73.68
2023-02-14T09:36:41.768Z,72.54
2023-02-14T09:39:08.280Z,71.36
2023-02-14T09:42:02.734Z,71.74
2023-02-14T09:44:36.761Z,70.40
2023-02-14T09:47:44.888Z,69.96
2023-02-14T09:50:22.505Z,71.17
2023-02-14T09:52:55.383Z,72.64
2023-02-14T09:55:22.475Z,71.26
2023-02-14T09:58:12.432Z,71.95
2023-02-14T10:00:46.579Z,71.59
2023-02-14T10:03:28.135Z,72.44
2023-02-14T10:05:58.949Z,72.35
2023-02-14T10:08:39.267Z,71.22
2023-02-14T10:11:14.394Z,72.51
2023-02-14T10:13:53.176Z,71.68
2023-02-14T10:16:27.209Z,70.81
2023-02-14T10:19:01.361Z,70.51
2023-02-14T10:21:38.315Z,70.26
2023-02-14T10:24:17.748Z,70.72
2023-02-14T10:26:47.296Z,70.42
2023-02-14T10:29:16.372Z,70.77
2023-02-14T10:32:02.368Z,69.40
2023-02-14T10:34:34.586Z,69.41
2023-02-14T10:37:19.871Z,71.60
2023-02-14T10:40:10.943Z,71.22
2023-02-14T10:42:55.695Z,71.42
2023-02-14T10:45:53.540Z,71.58
2023-02-14T10:48:29.336Z,69.73
2023-02-14T10:51:33.457Z,72.32
2023-02-14T10:54:18.775Z,72.82
2023-02-14T10:56:50.354Z,72.49
2023-02-14T10:59:46.465Z,71.64
2023-02-14T11:02:16.136Z,71.36
2023-02-14T11:04:47.062Z,71.39
2023-02-14T11:07:14.970Z,70.61
2023-02-14T11:09:41.652Z,71.88
2023-02-14T11:12:08.552Z,71.04
2023-02-14T11:14:37.493Z,73.13
2023-02-14T11:17:30.447Z,75.43
2023-02-14T11:20:02.968Z,74.14
2023-02-14T11:22:30.629Z,75.71
2023-02-14T11:25:18.145Z,76.54
2023-02-14T11:27:50.965Z,76.63
2023-02-14T11:30:26.950Z,76.56
2023-02-14T11:32:56.826Z,74.64
2023-02-14T11:35:27.595Z,75.33
2023-02-14T11:37:56.994Z,76.27
2023-02-14T11:40:38.109Z,75.07
2023-02-14T11:43:14.195Z,75.25
2023-02-14T11:45:44.426Z,74.37
2023-02-14T11:48:34.917Z,74.28
2023-02-14T11:51:16.756Z,73.04
2023-02-14T11:53:47.744Z,74.16
2023-02-14T11:56:19.181Z,73.31
2023-02-14T11:58:55.858Z,72.18
2023-02-14T12:01:32.155Z,72.34
2023-02-14T12:04:12.218Z,71.40
2023-02-14T12:06:38.703Z,71.41
2023-02-14T12:09:23.536Z,69.90
2023-02-14T12:11:59.854Z,70.20
2023-02-14T12:14:31.641Z,70.24
2023-02-14T12:17:24.086Z,70.21
2023-02-14T12:20:11.933Z,70.12
2023-02-14T12:23:05.139Z,68.61
2023-02-14T12:25:44.322Z,68.85
2023-02-14T12:28:15.355Z,69.31
2023-02-14T12:30:41.911Z,70.13
2023-02-14T12:33:22.946Z,70.04
2023-02-14T12:36:26.950Z,68.93
2023-02-14T12:39:26.041Z,70.33
2023-02-14T12:42:11.912Z,70.82
2023-02-14T12:44:56.289Z,70.28
2023-02-14T12:47:32.186Z,68.96
2023-02-14T12:50:27.913Z,69.92
2023-02-14T12:53:17.056Z,68.98
2023-02-14T12:55:54.734Z,70.01
2023-02-14T12:58:28.502Z,68.64
2023-02-14T13:01:28.901Z,70.13
2023-02-14T13:04:20.958Z,69.63
2023-02-14T13:07:22.591Z,70.29
2023-02-14T13:09:59.553Z,72.12
2023-02-14T13:12:36.115Z,72.08
2023-02-14T13:15:06.844Z,69.92
2023-02-14T13:17:41.991Z,72.14
2023-02-14T13:20:24.840Z,70.10
2023-02-14T13:22:54.602Z,71.02
2023-02-14T13:25:33.485Z,71.53
2023-02-14T13:28:04.080Z,70.33
2023-02-14T13:30:33.600Z,71.65
2023-02-14T13:33:08.975Z,72.30
2023-02-14T13:35:36.220Z,73.93
2023-02-14T13:38:06.931Z,73.12
2023-02-14T13:40:35.606Z,73.10
2023-02-14T13:43:02.905Z,73.60
2023-02-14T13:45:29.250Z,73.37
2023-02-14T13:48:17.080Z,74.24
2023-02-14T13:50:57.746Z,73.68
2023-02-14T13:53:30.595Z,74.62
2023-02-14T13:55:57.578Z,75.58
2023-02-14T13:58:25.680Z,74.46
2023-02-14T14:00:53.152Z,75.04
2023-02-14T14:03:28.987Z,77.68
2023-02-14T14:06:01.128Z,78.54
2023-02-14T14:08:30.569Z,78.31
2023-02-14T14:11:10.130Z,77.39
2023-02-14T14:13:42.735Z,76.84
2023-02-14T14:16:24.553Z,78.18
2023-02-14T14:18:53.236Z,79.61
2023-02-14T14:21:28.872Z,77.17
2023-02-14T14:24:28.835Z,78.10
2023-02-14T14:27:02.981Z,78.40
2023-02-14T14:29:39.396Z,78.63
2023-02-14T14:32:18.099Z,78.24
2023-02-14T14:34:55.039Z,78.71
2023-02-14T14:37:28.422Z,80.30
2023-02-14T14:40:00.169Z,77.71
2023-02-14T14:42:32.203Z,76.76
2023-02-14T14:45:06.910Z,75.54
2023-02-14T14:47:45.311Z,77.26
2023-02-14T14:50:24.572Z,77.01
2023-02-14T14:53:38.292Z,78.73
2023-02-14T14:56:04.788Z,77.28
2023-02-14T14:58:40.318Z,76.31
2023-02-14T15:01:13.176Z,77.65
2023-02-14T15:03:40.009Z,79.94
2023-02-14T15:06:17.366Z,79.52
2023-02-14T15:08:44.268Z,78.78
2023-02-14T15:11:41.754Z,79.02
2023-02-14T15:14:17.808Z,79.18
2023-02-14T15:16:51.344Z,79.75
2023-02-14T15:19:40.851Z,78.15
2023-02-14T15:22:19.753Z,79.05
2023-02-14T15:24:46.925Z,79.60
2023-02-14T15:27:19.246Z,77.69
2023-02-14T15:30:02.271Z,78.29
2023-02-14T15:32:32.105Z,80.11
2023-02-14T15:35:01.726Z,81.24
2023-02-14T15:37:28.644Z,80.05
2023-02-14T15:39:56.573Z,80.11
2023-02-14T15:42:32.717Z,78.42
2023-02-14T15:45:17.786Z,78.38
2023-02-14T15:47:47.518Z,80.13
2023-02-14T15:50:25.144Z,79.18
2023-02-14T15:53:02.573Z,79.97
2023-02-14T15:55:30.848Z,80.69
2023-02-14T15:58:04.836Z,80.64
2023-02-14T16:00:32.335Z,78.88
2023-02-14T16:03:04.989Z,78.50
2023-02-14T16:05:31.796Z,78.48
2023-02-14T16:08:03.675Z,79.22
2023-02-14T16:10:30.117Z,78.27
2023-02-14T16:12:57.583Z,77.76
2023-02-14T16:15:26.789Z,78.53
2023-02-14T16:17:53.472Z,79.21
2023-02-14T16:20:36.122Z,79.66
2023-02-14T16:23:21.316Z,82.05
2023-02-14T16:25:48.291Z,82.09
2023-02-14T16:28:15.153Z,81.59
2023-02-14T16:30:42.786Z,82.52
2023-02-14T16:33:16.432Z,82.87
2023-02-14T16:35:42.927Z,81.46
2023-02-14T16:38:15.801Z,80.07
2023-02-14T16:40:49.086Z,80.20
2023-02-14T16:43:17.059Z,80.62
2023-02-14T16:45:44.326Z,79.24
2023-02-14T16:48:10.819Z,78.37
2023-02-14T16:50:39.551Z,79.28
2023-02-14T16:53:20.512Z,78.54
2023-02-14T16:55:47.138Z,80.40
2023-02-14T16:58:14.602Z,79.86
2023-02-14T17:00:42.008Z,79.92
2023-02-14T17:03:11.408Z,80.67
2023-02-14T17:05:39.912Z,80.62
2023-02-14T17:08:11.067Z,80.37
2023-02-14T17:10:38.903Z,79.64
2023-02-14T17:13:06.963Z,80.00
2023-02-14T17:15:34.238Z,78.26
2023-02-14T17:18:04.936Z,77.91
2023-02-14T17:20:31.406Z,76.08
2023-02-14T17:22:58.274Z,76.38
2023-02-14T17:25:25.390Z,76.78
2023-02-14T17:27:51.815Z,76.62
2023-02-14T17:30:18.715Z,76.68
2023-02-14T17:32:45.183Z,76.26
2023-02-14T17:35:11.950Z,76.52
2023-02-14T17:37:38.380Z,75.86
2023-02-14T17:40:05.883Z,75.10
2023-02-14T17:42:33.525Z,73.95
2023-02-14T17:45:00.025Z,73.45
2023-02-14T17:47:26.643Z,73.87
2023-02-14T17:49:53.093Z,72.96
2023-02-14T17:52:19.619Z,72.47
2023-02-14T17:54:46.031Z,72.28
2023-02-14T17:57:12.696Z,72.68
2023-02-14T17:59:39.275Z,73.21
2023-02-14T18:02:06.417Z,73.36
2023-02-14T18:04:34.887Z,72.71
2023-02-14T18:07:01.286Z,75.85
2023-02-14T18:09:28.288Z,73.63
2023-02-14T18:11:55.472Z,72.94
2023-02-14T18:14:22.459Z,71.87
2023-02-14T18:16:48.883Z,72.07
2023-02-14T18:19:17.901Z,71.75
2023-02-14T18:21:45.452Z,71.33
2023-02-14T18:24:13.101Z,70.66
2023-02-14T18:26:41.691Z,71.32
2023-02-14T18:29:08.293Z,71.56
2023-02-14T18:31:37.849Z,70.61
2023-02-14T18:34:05.070Z,70.71
2023-02-14T18:36:32.295Z,71.10
2023-02-14T18:38:58.971Z,71.10
2023-02-14T18:41:26.589Z,70.05
2023-02-14T18:43:53.086Z,70.70
2023-02-14T18:46:25.493Z,71.46
2023-02-14T18:48:52.508Z,71.14
2023-02-14T18:51:18.884Z,70.73
2023-02-14T18:53:46.069Z,70.63
2023-02-14T18:56:15.625Z,71.21
2023-02-14T18:58:44.474Z,70.94
2023-02-14T19:01:13.914Z,70.21
2023-02-14T19:03:41.180Z,70.21
2023-02-14T19:06:08.868Z,70.21
2023-02-14T19:08:37.010Z,70.55
2023-02-14T19:11:03.792Z,70.82
2023-02-14T19:13:32.146Z,70.88
2023-02-14T19:15:59.360Z,70.47
2023-02-14T19:18:26.543Z,70.98
2023-02-14T19:20:53.143Z,70.96
2023-02-14T19:23:19.662Z,71.17
2023-02-14T19:25:46.048Z,70.03
2023-02-14T19:28:12.529Z,70.95
2023-02-14T19:30:39.329Z,70.12
2023-02-14T19:33:06.822Z,71.27
2023-02-14T19:35:33.264Z,70.25
2023-02-14T19:38:03.415Z,70.26
2023-02-14T19:40:30.734Z,71.19
2023-02-14T19:42:57.202Z,69.95
2023-02-14T19:45:23.615Z,70.18
2023-02-14T19:47:50.040Z,71.36
2023-02-14T19:50:17.572Z,71.44
2023-02-14T19:52:44.495Z,71.46
2023-02-14T19:55:20.695Z,70.35
2023-02-14T19:57:47.965Z,70.12
2023-02-14T20:00:16.188Z,70.19
2023-02-14T20:02:47.917Z,70.45
2023-02-14T20:05:17.587Z,70.26
2023-02-14T20:07:44.157Z,71.13
2023-02-14T20:10:12.156Z,70.01
2023-02-14T20:12:38.684Z,70.25
2023-02-14T20:15:06.186Z,71.05
2023-02-14T20:17:33.321Z,70.12
2023-02-14T20:19:59.899Z,71.33
2023-02-14T20:22:26.814Z,70.36
2023-02-14T20:24:53.390Z,70.04
2023-02-14T20:27:20.485Z,69.81
2023-02-14T20:29:46.967Z,70.42
2023-02-14T20:32:15.768Z,70.28
2023-02-14T20:34:43.006Z,69.99
2023-02-14T20:37:11.043Z,69.92
2023-02-14T20:39:38.104Z,69.95
2023-02-14T20:42:05.493Z,69.70
2023-02-14T20:44:32.028Z,70.70
2023-02-14T20:46:58.609Z,70.09
2023-02-14T20:49:27.168Z,70.43
2023-02-14T20:51:53.890Z,69.72
2023-02-14T20:54:23.252Z,71.52
2023-02-14T20:56:51.591Z,72.44
2023-02-14T20:59:28.690Z,72.47
2023-02-14T21:01:57.273Z,71.54
2023-02-14T21:04:24.895Z,70.44
2023-02-14T21:06:51.364Z,70.12
2023-02-14T21:09:18.647Z,69.87
2023-02-14T21:11:45.187Z,70.21
2023-02-14T21:14:11.984Z,69.35
2023-02-14T21:16:38.507Z,69.94
2023-02-14T21:19:05.762Z,69.82
2023-02-14T21:21:36.809Z,69.63
2023-02-14T21:24:12.024Z,69.10
2023-02-14T21:26:39.029Z,69.43
2023-02-14T21:29:05.922Z,69.58
2023-02-14T21:31:32.517Z,69.77
2023-02-14T21:34:00.981Z,69.23
2023-02-14T21:36:29.864Z,69.30
2023-02-14T21:38:58.331Z,68.65
2023-02-14T21:41:27.761Z,68.75
2023-02-14T21:43:56.342Z,69.29
2023-02-14T21:46:30.576Z,69.62
2023-02-14T21:49:17.358Z,69.00
2023-02-14T21:51:44.033Z,68.94
2023-02-14T21:54:11.046Z,69.13
2023-02-14T21:56:39.406Z,69.88
2023-02-14T21:59:05.836Z,70.13
2023-02-14T22:01:34.997Z,70.36
2023-02-14T22:04:07.668Z,69.70
2023-02-14T22:06:36.496Z,68.87
2023-02-14T22:09:04.046Z,70.04
2023-02-14T22:11:30.729Z,68.95
2023-02-14T22:13:57.217Z,69.22
2023-02-14T22:16:24.934Z,69.67
2023-02-14T22:18:52.144Z,69.57
2023-02-14T22:21:24.313Z,69.65
2023-02-14T22:23:51.250Z,70.25
2023-02-14T22:26:17.655Z,69.88
2023-02-14T22:28:46.312Z,70.96
2023-02-14T22:31:14.307Z,71.09
2023-02-14T22:33:40.899Z,71.35
2023-02-14T22:36:08.456Z,70.60
2023-02-14T22:38:35.779Z,71.39
2023-02-14T22:41:12.159Z,72.44
2023-02-14T22:43:39.788Z,71.79
2023-02-14T22:46:09.306Z,71.46
2023-02-14T22:48:37.522Z,70.71
2023-02-14T22:51:09.359Z,70.70
2023-02-14T22:53:36.278Z,70.37
2023-02-14T22:56:17.118Z,70.09
2023-02-14T22:58:44.509Z,70.31
2023-02-14T23:01:19.364Z,70.27
2023-02-14T23:03:47.810Z,70.11
2023-02-14T23:06:15.173Z,69.88
2023-02-14T23:08:43.820Z,71.55
2023-02-14T23:11:13.536Z,73.45
2023-02-14T23:13:58.935Z,73.88
2023-02-14T23:16:44.240Z,73.48
2023-02-14T23:19:34.981Z,71.07
2023-02-14T23:22:11.014Z,73.05
2023-02-14T23:24:37.597Z,72.24
2023-02-14T23:27:04.659Z,71.86
2023-02-14T23:29:31.092Z,72.06
2023-02-14T23:31:57.792Z,71.49
2023-02-14T23:34:26.519Z,72.37
2023-02-14T23:36:53.223Z,72.33
2023-02-14T23:39:19.682Z,72.12
2023-02-14T23:41:49.121Z,72.60
2023-02-14T23:44:19.787Z,72.19
2023-02-14T23:46:48.598Z,72.97
2023-02-14T23:49:15.924Z,72.77
2023-02-14T23:51:43.539Z,72.28
2023-02-14T23:54:10.381Z,72.18
2023-02-14T23:56:37.457Z,72.47
2023-02-14T23:59:05.343Z,72.33
